createdAt,value
2019-04-01T00:01:02.078Z,25.97
2019-04-01T00:02:36.373Z,37.23
2019-04-01T00:04:10.827Z,39.83
2019-04-01T00:05:44.443Z,41.40
2019-04-01T00:07:19.099Z,42.93
2019-04-01T00:08:53.343Z,39.13
2019-04-01T00:10:27.576Z,50.25
2019-04-01T00:12:01.867Z,55.75
2019-04-01T00:13:36.676Z,65.32
2019-04-01T00:15:10.876Z,62.93
2019-04-01T00:16:45.103Z,65.72
2019-04-01T00:18:19.329Z,63.50
2019-04-01T00:19:53.605Z,55.53
2019-04-01T00:21:27.822Z,52.45
2019-04-01T00:23:02.384Z,48.65
2019-04-01T00:24:36.937Z,49.00
2019-04-01T00:26:11.768Z,61.10
2019-04-01T00:27:46.002Z,39.75
2019-04-01T00:29:20.297Z,62.67
2019-04-01T00:30:54.039Z,50.30
2019-04-01T00:32:28.092Z,51.27
2019-04-01T00:34:02.313Z,54.23
2019-04-01T00:35:37.060Z,37.03
2019-04-01T00:37:10.736Z,34.40
2019-04-01T00:38:45.223Z,23.47
2019-04-01T00:40:19.522Z,29.95
2019-04-01T00:41:55.382Z,30.88
2019-04-01T00:43:40.146Z,28.00
2019-04-01T00:45:16.615Z,23.90
2019-04-01T00:46:50.240Z,24.47
2019-04-01T00:48:24.539Z,31.57
2019-04-01T00:49:58.867Z,34.33
2019-04-01T00:51:34.057Z,26.48
2019-04-01T00:53:08.272Z,25.57
2019-04-01T00:54:41.892Z,29.50
2019-04-01T00:56:15.592Z,29.30
2019-04-01T00:57:49.546Z,26.57
2019-04-01T00:59:23.824Z,41.90
2019-04-01T01:00:57.516Z,36.37
2019-04-01T01:02:31.854Z,45.12
2019-04-01T01:04:05.867Z,28.13
2019-04-01T01:05:39.511Z,30.90
2019-04-01T01:07:13.722Z,35.67
2019-04-01T01:08:47.377Z,38.77
2019-04-01T01:10:21.301Z,28.83
2019-04-01T01:11:55.001Z,32.95
2019-04-01T01:13:28.633Z,36.47
2019-04-01T01:15:02.384Z,34.27
2019-04-01T01:16:37.176Z,35.10
2019-04-01T01:18:10.801Z,36.73
2019-04-01T01:19:45.031Z,36.50
2019-04-01T01:21:18.697Z,34.60
2019-04-01T01:22:53.429Z,37.70
2019-04-01T01:24:27.065Z,46.30
2019-04-01T01:26:00.772Z,37.00
2019-04-01T01:27:34.523Z,30.37
2019-04-01T01:29:08.502Z,33.63
2019-04-01T01:30:42.105Z,34.33
2019-04-01T01:32:15.727Z,31.60
2019-04-01T01:33:50.061Z,31.62
2019-04-01T01:35:24.310Z,47.80
2019-04-01T01:36:58.061Z,50.27
2019-04-01T01:38:32.193Z,62.33
2019-04-01T01:40:06.306Z,55.40
2019-04-01T01:41:40.346Z,42.20
2019-04-01T01:43:14.096Z,55.93
2019-04-01T01:44:48.384Z,59.75
2019-04-01T01:46:22.030Z,67.40
2019-04-01T01:47:56.649Z,58.92
2019-04-01T01:49:30.380Z,55.07
2019-04-01T01:51:04.123Z,49.13
2019-04-01T01:52:38.372Z,56.28
2019-04-01T01:54:13.187Z,49.63
2019-04-01T01:55:47.433Z,39.20
2019-04-01T01:57:21.809Z,42.65
2019-04-01T01:58:55.497Z,50.67
2019-04-01T02:00:30.031Z,48.73
2019-04-01T02:02:04.401Z,36.38
2019-04-01T02:03:38.061Z,33.40
2019-04-01T02:05:11.698Z,37.30
2019-04-01T02:06:45.435Z,28.43
2019-04-01T02:08:19.199Z,28.80
2019-04-01T02:09:52.839Z,33.23
2019-04-01T02:11:26.473Z,31.53
2019-04-01T02:13:01.230Z,30.35
2019-04-01T02:14:34.905Z,22.93
2019-04-01T02:16:09.200Z,24.87
2019-04-01T02:17:43.467Z,31.60
2019-04-01T02:19:18.147Z,25.88
2019-04-01T02:20:52.370Z,27.05
2019-04-01T02:22:26.046Z,29.35
2019-04-01T02:24:00.308Z,21.97
2019-04-01T02:25:34.720Z,26.03
2019-04-01T02:27:08.480Z,31.30
2019-04-01T02:28:42.220Z,29.07
2019-04-01T02:30:16.517Z,29.65
2019-04-01T02:31:50.497Z,31.10
2019-04-01T02:33:24.738Z,35.78
2019-04-01T02:34:59.020Z,26.27
2019-04-01T02:36:33.289Z,28.52
2019-04-01T02:38:07.342Z,31.33
2019-04-01T02:39:41.026Z,31.97
2019-04-01T02:41:15.173Z,36.00
2019-04-01T02:42:49.401Z,30.72
2019-04-01T02:44:24.085Z,30.37
2019-04-01T02:45:57.739Z,32.70
2019-04-01T02:47:31.462Z,34.33
2019-04-01T02:49:05.103Z,30.80
2019-04-01T02:50:39.258Z,26.07
2019-04-01T02:52:12.948Z,30.43
2019-04-01T02:53:46.668Z,29.03
2019-04-01T02:55:20.298Z,27.70
2019-04-01T02:56:54.802Z,29.92
2019-04-01T02:58:31.188Z,29.45
2019-04-01T03:00:08.189Z,30.10
2019-04-01T03:01:42.406Z,31.23
2019-04-01T03:03:16.938Z,33.53
2019-04-01T03:04:51.627Z,43.40
2019-04-01T03:06:25.264Z,42.30
2019-04-01T03:07:59.491Z,70.52
2019-04-01T03:09:33.658Z,61.93
2019-04-01T03:11:10.463Z,67.33
2019-04-01T03:12:42.699Z,59.70
2019-04-01T03:14:16.449Z,55.57
2019-04-01T03:15:50.379Z,87.07
2019-04-01T03:17:24.683Z,95.25
2019-04-01T03:18:58.379Z,82.83
2019-04-01T03:20:32.573Z,83.12
2019-04-01T03:22:07.134Z,86.92
2019-04-01T03:23:41.354Z,80.80
2019-04-01T03:25:15.799Z,35.65
2019-04-01T03:26:51.515Z,27.58
2019-04-01T03:28:25.986Z,29.23
2019-04-01T03:29:59.683Z,26.20
2019-04-01T03:31:34.001Z,33.33
2019-04-01T03:33:07.656Z,30.05
2019-04-01T03:34:41.715Z,30.93
2019-04-01T03:36:15.446Z,29.90
2019-04-01T03:37:49.197Z,27.00
2019-04-01T03:39:22.821Z,33.33
2019-04-01T03:40:57.545Z,32.05
2019-04-01T03:42:31.758Z,36.38
2019-04-01T03:44:06.053Z,33.45
2019-04-01T03:45:40.360Z,35.45
2019-04-01T03:47:14.588Z,29.20
2019-04-01T03:48:48.855Z,27.00
2019-04-01T03:50:23.155Z,27.22
2019-04-01T03:51:57.431Z,27.17
2019-04-01T03:53:31.498Z,26.77
2019-04-01T03:55:06.344Z,30.50
2019-04-01T03:56:40.624Z,34.67
2019-04-01T03:58:14.316Z,27.83
2019-04-01T03:59:48.533Z,27.83
2019-04-01T04:01:22.155Z,30.63
2019-04-01T04:02:56.403Z,31.17
2019-04-01T04:04:30.711Z,29.52
2019-04-01T04:06:05.473Z,33.05
2019-04-01T04:07:39.206Z,28.77
2019-04-01T04:09:12.934Z,35.97
2019-04-01T04:10:46.601Z,31.80
2019-04-01T04:12:21.119Z,37.55
2019-04-01T04:13:55.333Z,43.50
2019-04-01T04:15:29.024Z,36.73
2019-04-01T04:17:02.754Z,39.93
2019-04-01T04:18:36.701Z,31.00
2019-04-01T04:20:10.343Z,32.47
2019-04-01T04:21:43.971Z,36.43
2019-04-01T04:23:17.711Z,30.47
2019-04-01T04:24:51.535Z,33.47
2019-04-01T04:26:25.204Z,37.17
2019-04-01T04:27:58.907Z,36.20
2019-04-01T04:29:33.121Z,33.63
2019-04-01T04:31:06.971Z,31.93
2019-04-01T04:32:40.668Z,28.97
2019-04-01T04:34:14.320Z,30.47
2019-04-01T04:35:47.948Z,40.57
2019-04-01T04:37:21.864Z,47.77
2019-04-01T04:38:55.567Z,34.97
2019-04-01T04:40:29.788Z,40.38
2019-04-01T04:42:03.430Z,32.10
2019-04-01T04:43:37.670Z,39.40
2019-04-01T04:45:12.162Z,39.00
2019-04-01T04:46:45.884Z,43.17
2019-04-01T04:48:19.623Z,50.33
2019-04-01T04:49:53.901Z,51.07
2019-04-01T04:51:27.615Z,55.63
2019-04-01T04:53:01.899Z,56.63
2019-04-01T04:54:35.602Z,49.83
2019-04-01T04:56:09.340Z,49.97
2019-04-01T04:57:42.988Z,38.33
2019-04-01T04:59:17.238Z,30.60
2019-04-01T05:00:51.292Z,34.90
2019-04-01T05:02:25.208Z,30.87
2019-04-01T05:03:58.917Z,31.03
2019-04-01T05:05:32.649Z,30.50
2019-04-01T05:07:06.358Z,32.57
2019-04-01T05:08:40.495Z,35.90
2019-04-01T05:10:14.417Z,26.30
2019-04-01T05:11:49.891Z,29.32
2019-04-01T05:13:23.525Z,35.83
2019-04-01T05:14:57.664Z,24.87
2019-04-01T05:16:32.636Z,29.20
2019-04-01T05:18:06.930Z,25.12
2019-04-01T05:19:41.203Z,28.45
2019-04-01T05:21:17.453Z,36.03
2019-04-01T05:22:52.075Z,26.73
2019-04-01T05:24:28.184Z,32.42
2019-04-01T05:26:03.204Z,30.52
2019-04-01T05:27:38.675Z,30.55
2019-04-01T05:29:15.181Z,31.80
2019-04-01T05:30:51.042Z,29.95
2019-04-01T05:32:27.162Z,29.30
2019-04-01T05:34:02.409Z,27.70
2019-04-01T05:35:36.721Z,24.72
2019-04-01T05:37:11.012Z,28.12
2019-04-01T05:38:45.243Z,32.00
2019-04-01T05:40:19.896Z,29.00
2019-04-01T05:41:54.122Z,34.88
2019-04-01T05:43:29.257Z,38.05
2019-04-01T05:45:04.457Z,46.53
2019-04-01T05:46:39.236Z,34.48
2019-04-01T05:48:14.537Z,49.67
2019-04-01T05:49:48.750Z,65.35
2019-04-01T05:51:22.967Z,55.83
2019-04-01T05:52:57.594Z,57.50
2019-04-01T05:54:31.815Z,52.67
2019-04-01T05:56:07.147Z,58.25
2019-04-01T05:57:41.385Z,53.95
2019-04-01T05:59:16.681Z,42.90
2019-04-01T06:00:55.273Z,49.77
2019-04-01T06:02:29.625Z,49.45
2019-04-01T06:04:04.789Z,47.90
2019-04-01T06:05:39.309Z,48.13
2019-04-01T06:07:13.610Z,46.30
2019-04-01T06:08:47.969Z,46.53
2019-04-01T06:10:22.251Z,44.33
2019-04-01T06:11:56.677Z,51.18
2019-04-01T06:13:30.921Z,50.28
2019-04-01T06:15:08.243Z,52.10
2019-04-01T06:16:42.519Z,48.78
2019-04-01T06:18:18.154Z,48.45
2019-04-01T06:19:52.388Z,48.28
2019-04-01T06:21:26.760Z,41.58
2019-04-01T06:23:00.944Z,43.70
2019-04-01T06:24:35.474Z,40.52
2019-04-01T06:26:10.111Z,57.00
2019-04-01T06:27:44.410Z,47.25
2019-04-01T06:29:18.978Z,49.23
2019-04-01T06:30:53.783Z,57.95
2019-04-01T06:32:28.092Z,66.82
2019-04-01T06:34:02.880Z,60.40
2019-04-01T06:35:37.212Z,125.78
2019-04-01T06:37:11.612Z,66.53
2019-04-01T06:38:45.889Z,102.80
2019-04-01T06:40:20.182Z,105.05
2019-04-01T06:41:54.515Z,106.43
2019-04-01T06:43:29.056Z,81.15
2019-04-01T06:45:04.258Z,73.15
2019-04-01T06:46:38.562Z,64.05
2019-04-01T06:48:12.932Z,79.67
2019-04-01T06:49:47.539Z,75.25
2019-04-01T06:51:21.886Z,64.87
2019-04-01T06:52:56.093Z,64.72
2019-04-01T06:54:30.425Z,62.67
2019-04-01T06:56:05.546Z,72.30
2019-04-01T06:57:39.846Z,75.25
2019-04-01T06:59:14.179Z,72.97
2019-04-01T07:00:48.409Z,66.15
2019-04-01T07:02:22.829Z,74.22
2019-04-01T07:03:57.069Z,61.83
2019-04-01T07:05:31.385Z,59.40
2019-04-01T07:07:18.336Z,56.65
2019-04-01T07:08:41.938Z,336.32
2019-04-01T07:10:16.250Z,163.32
2019-04-01T07:11:51.948Z,335.45
2019-04-01T07:13:26.331Z,54.77
2019-04-01T07:15:00.793Z,56.60
2019-04-01T07:16:35.643Z,41.65
2019-04-01T07:18:09.878Z,39.23
2019-04-01T07:19:45.865Z,141.55
2019-04-01T07:21:21.951Z,193.72
2019-04-01T07:22:56.230Z,69.47
2019-04-01T07:24:30.571Z,109.22
2019-04-01T07:26:04.894Z,62.70
2019-04-01T07:27:39.428Z,79.80
2019-04-01T07:29:13.723Z,30.92
2019-04-01T07:30:48.039Z,33.75
2019-04-01T07:32:22.242Z,33.60
2019-04-01T07:33:56.758Z,33.95
2019-04-01T07:35:31.345Z,29.15
2019-04-01T07:37:05.668Z,35.40
2019-04-01T07:38:40.978Z,30.62
2019-04-01T07:40:15.426Z,31.35
2019-04-01T07:41:49.640Z,35.43
2019-04-01T07:43:24.016Z,32.90
2019-04-01T07:44:58.857Z,32.05
2019-04-01T07:46:33.682Z,36.20
2019-04-01T07:48:07.913Z,36.45
2019-04-01T07:49:42.278Z,32.93
2019-04-01T07:51:16.813Z,39.23
2019-04-01T07:52:51.446Z,37.42
2019-04-01T07:54:25.679Z,39.10
2019-04-01T07:56:02.571Z,37.63
2019-04-01T07:57:35.882Z,37.63
2019-04-01T07:59:10.458Z,38.00
2019-04-01T08:00:45.135Z,37.30
2019-04-01T08:02:19.496Z,34.40
2019-04-01T08:03:53.830Z,29.10
2019-04-01T08:05:28.823Z,33.83
2019-04-01T08:07:03.212Z,31.85
2019-04-01T08:08:37.520Z,29.70
2019-04-01T08:10:11.894Z,37.63
2019-04-01T08:11:49.890Z,32.38
2019-04-01T08:13:22.500Z,26.40
2019-04-01T08:14:56.936Z,23.40
2019-04-01T08:16:31.204Z,26.35
2019-04-01T08:18:05.532Z,26.55
2019-04-01T08:19:40.226Z,23.45
2019-04-01T08:21:14.468Z,29.45
2019-04-01T08:22:48.785Z,24.65
2019-04-01T08:24:23.415Z,26.12
2019-04-01T08:25:57.763Z,27.42
2019-04-01T08:27:31.962Z,27.07
2019-04-01T08:29:06.234Z,28.50
2019-04-01T08:30:40.942Z,35.75
2019-04-01T08:32:15.174Z,22.52
2019-04-01T08:33:50.370Z,26.40
2019-04-01T08:35:24.779Z,28.77
2019-04-01T08:36:59.526Z,26.23
2019-04-01T08:38:33.741Z,27.40
2019-04-01T08:40:08.579Z,29.98
2019-04-01T08:41:42.794Z,26.93
2019-04-01T08:43:17.217Z,25.72
2019-04-01T08:44:51.532Z,23.62
2019-04-01T08:46:25.760Z,23.62
2019-04-01T08:48:00.053Z,28.87
2019-04-01T08:49:34.773Z,21.27
2019-04-01T08:51:09.156Z,25.40
2019-04-01T08:52:44.352Z,23.22
2019-04-01T08:54:18.584Z,19.75
2019-04-01T08:56:00.542Z,21.82
2019-04-01T08:57:28.869Z,26.23
2019-04-01T08:59:03.174Z,20.88
2019-04-01T09:00:37.464Z,19.52
2019-04-01T09:02:18.001Z,18.20
2019-04-01T09:03:48.064Z,16.82
2019-04-01T09:05:22.312Z,15.53
2019-04-01T09:06:56.567Z,14.38
2019-04-01T09:08:31.688Z,14.93
2019-04-01T09:10:07.514Z,16.10
2019-04-01T09:11:42.428Z,13.58
2019-04-01T09:13:16.751Z,14.05
2019-04-01T09:14:52.562Z,14.98
2019-04-01T09:16:26.851Z,11.33
2019-04-01T09:18:01.087Z,11.70
2019-04-01T09:19:35.382Z,11.78
2019-04-01T09:21:10.159Z,8.83
2019-04-01T09:22:44.446Z,10.38
2019-04-01T09:24:18.666Z,10.30
2019-04-01T09:25:52.919Z,10.63
2019-04-01T09:27:27.711Z,8.70
2019-04-01T09:29:01.973Z,9.03
2019-04-01T09:30:36.268Z,9.18
2019-04-01T09:32:10.541Z,10.53
2019-04-01T09:33:45.770Z,13.90
2019-04-01T09:35:19.943Z,9.45
2019-04-01T09:36:54.219Z,10.45
2019-04-01T09:38:28.482Z,10.28
2019-04-01T09:40:03.426Z,11.05
2019-04-01T09:41:37.706Z,10.05
2019-04-01T09:43:14.117Z,9.70
2019-04-01T09:44:47.906Z,13.98
2019-04-01T09:46:22.510Z,8.98
2019-04-01T09:47:56.754Z,8.85
2019-04-01T09:49:31.038Z,7.33
2019-04-01T09:51:05.217Z,9.98
2019-04-01T09:52:39.870Z,11.40
2019-04-01T09:54:14.073Z,9.80
2019-04-01T09:55:49.669Z,9.55
2019-04-01T09:57:23.897Z,10.38
2019-04-01T09:58:58.434Z,9.30
2019-04-01T10:00:32.647Z,7.85
2019-04-01T10:02:06.974Z,8.83
2019-04-01T10:03:41.207Z,11.95
2019-04-01T10:05:16.277Z,10.68
2019-04-01T10:06:50.530Z,9.75
2019-04-01T10:08:25.353Z,11.93
2019-04-01T10:09:59.643Z,9.85
2019-04-01T10:11:34.149Z,6.53
2019-04-01T10:13:08.433Z,8.38
2019-04-01T10:14:42.936Z,12.90
2019-04-01T10:16:17.146Z,11.18
2019-04-01T10:17:51.606Z,11.60
2019-04-01T10:19:25.870Z,10.03
2019-04-01T10:21:00.138Z,12.58
2019-04-01T10:22:34.334Z,9.73
2019-04-01T10:24:08.950Z,10.90
2019-04-01T10:25:43.215Z,11.05
2019-04-01T10:27:17.495Z,9.10
2019-04-01T10:28:51.734Z,12.00
2019-04-01T10:30:26.379Z,8.95
2019-04-01T10:32:00.574Z,7.87
2019-04-01T10:33:36.384Z,13.95
2019-04-01T10:35:12.132Z,13.53
2019-04-01T10:36:46.719Z,7.62
2019-04-01T10:38:20.910Z,11.08
2019-04-01T10:39:55.156Z,12.15
2019-04-01T10:41:29.442Z,10.72
2019-04-01T10:43:03.935Z,8.55
2019-04-01T10:44:38.142Z,10.13
2019-04-01T10:46:12.643Z,10.88
2019-04-01T10:47:47.145Z,12.00
2019-04-01T10:49:21.668Z,11.93
2019-04-01T10:50:55.828Z,7.28
2019-04-01T10:52:30.087Z,8.50
2019-04-01T10:54:04.403Z,9.90
2019-04-01T10:55:38.719Z,11.90
2019-04-01T10:57:13.044Z,9.30
2019-04-01T10:58:47.367Z,9.60
2019-04-01T11:00:21.567Z,8.18
2019-04-01T11:01:55.984Z,9.95
2019-04-01T11:03:30.198Z,9.13
2019-04-01T11:05:07.146Z,9.30
2019-04-01T11:06:41.344Z,14.98
2019-04-01T11:08:15.791Z,9.60
2019-04-01T11:09:50.057Z,9.65
2019-04-01T11:11:24.283Z,11.73
2019-04-01T11:12:58.506Z,12.10
2019-04-01T11:14:33.053Z,9.50
2019-04-01T11:16:07.334Z,11.50
2019-04-01T11:17:41.554Z,12.70
2019-04-01T11:19:15.829Z,12.58
2019-04-01T11:20:50.119Z,12.10
2019-04-01T11:22:24.356Z,9.35
2019-04-01T11:23:58.574Z,10.05
2019-04-01T11:25:33.189Z,12.53
2019-04-01T11:27:07.571Z,10.03
2019-04-01T11:28:41.783Z,12.18
2019-04-01T11:30:16.574Z,7.90
2019-04-01T11:31:50.986Z,10.40
2019-04-01T11:33:25.497Z,11.70
2019-04-01T11:34:59.824Z,12.78
2019-04-01T11:36:34.052Z,17.60
2019-04-01T11:38:08.301Z,15.55
2019-04-01T11:39:42.758Z,12.13
2019-04-01T11:41:17.357Z,12.43
2019-04-01T11:42:52.925Z,12.50
2019-04-01T11:44:27.588Z,12.80
2019-04-01T11:46:02.662Z,12.30
2019-04-01T11:47:36.941Z,10.43
2019-04-01T11:49:11.211Z,10.35
2019-04-01T11:50:47.782Z,8.35
2019-04-01T11:52:21.734Z,10.95
2019-04-01T11:53:56.006Z,9.80
2019-04-01T11:55:30.214Z,12.85
2019-04-01T11:57:04.448Z,10.05
2019-04-01T11:58:38.873Z,10.00
2019-04-01T12:00:14.929Z,11.08
2019-04-01T12:01:49.220Z,11.97
2019-04-01T12:03:23.899Z,13.25
2019-04-01T12:04:58.271Z,9.70
2019-04-01T12:06:32.489Z,12.07
2019-04-01T12:08:06.714Z,12.03
2019-04-01T12:09:41.006Z,9.48
2019-04-01T12:11:15.425Z,12.70
2019-04-01T12:12:49.799Z,15.50
2019-04-01T12:14:24.618Z,12.20
2019-04-01T12:15:58.946Z,11.55
2019-04-01T12:17:33.468Z,8.15
2019-04-01T12:19:07.719Z,10.00
2019-04-01T12:20:41.939Z,11.03
2019-04-01T12:22:19.687Z,10.72
2019-04-01T12:23:52.360Z,10.30
2019-04-01T12:25:26.616Z,12.33
2019-04-01T12:27:00.838Z,8.10
2019-04-01T12:28:36.711Z,10.55
2019-04-01T12:30:11.904Z,10.43
2019-04-01T12:31:46.200Z,10.78
2019-04-01T12:33:20.465Z,14.83
2019-04-01T12:34:54.664Z,13.95
2019-04-01T12:36:29.079Z,18.15
2019-04-01T12:38:03.456Z,11.28
2019-04-01T12:39:37.674Z,14.98
2019-04-01T12:41:12.030Z,13.80
2019-04-01T12:42:46.934Z,12.20
2019-04-01T12:44:22.356Z,19.00
2019-04-01T12:45:56.677Z,17.00
2019-04-01T12:47:31.017Z,19.35
2019-04-01T12:49:05.377Z,15.95
2019-04-01T12:50:39.622Z,12.43
2019-04-01T12:52:13.912Z,12.23
2019-04-01T12:53:48.237Z,9.50
2019-04-01T12:55:22.769Z,15.72
2019-04-01T12:56:57.099Z,16.62
2019-04-01T12:58:31.398Z,16.40
2019-04-01T13:00:09.582Z,27.22
2019-04-01T13:01:44.055Z,36.80
2019-04-01T13:03:18.704Z,22.07
2019-04-01T13:04:54.271Z,12.20
2019-04-01T13:06:28.550Z,14.03
2019-04-01T13:08:03.205Z,16.00
2019-04-01T13:09:37.502Z,14.25
2019-04-01T13:11:11.727Z,11.95
2019-04-01T13:12:46.473Z,12.82
2019-04-01T13:14:21.370Z,15.90
2019-04-01T13:15:55.603Z,14.03
2019-04-01T13:17:29.850Z,10.85
2019-04-01T13:19:04.112Z,15.45
2019-04-01T13:20:38.617Z,12.33
2019-04-01T13:22:12.917Z,9.83
2019-04-01T13:23:47.137Z,16.85
2019-04-01T13:25:21.338Z,11.40
2019-04-01T13:26:55.735Z,12.82
2019-04-01T13:28:30.388Z,15.55
2019-04-01T13:30:06.408Z,11.12
2019-04-01T13:31:40.622Z,13.80
2019-04-01T13:33:15.146Z,12.93
2019-04-01T13:34:49.491Z,12.65
2019-04-01T13:36:23.713Z,14.75
2019-04-01T13:37:58.055Z,11.90
2019-04-01T13:39:32.803Z,11.60
2019-04-01T13:41:06.990Z,14.68
2019-04-01T13:42:41.281Z,15.88
2019-04-01T13:44:15.584Z,22.07
2019-04-01T13:45:50.309Z,15.08
2019-04-01T13:47:24.830Z,14.98
2019-04-01T13:49:03.993Z,11.97
2019-04-01T13:50:35.022Z,14.58
2019-04-01T13:52:11.931Z,14.28
2019-04-01T13:53:46.185Z,13.32
2019-04-01T13:55:20.456Z,14.68
2019-04-01T13:56:56.042Z,17.32
2019-04-01T13:58:31.697Z,11.80
2019-04-01T14:00:07.702Z,12.33
2019-04-01T14:01:41.990Z,29.75
2019-04-01T14:03:17.213Z,14.50
2019-04-01T14:04:52.017Z,10.68
2019-04-01T14:06:26.293Z,14.00
2019-04-01T14:08:00.478Z,15.98
2019-04-01T14:09:34.697Z,11.88
2019-04-01T14:11:09.176Z,13.25
2019-04-01T14:12:43.453Z,11.28
2019-04-01T14:14:17.738Z,17.92
2019-04-01T14:15:51.947Z,15.25
2019-04-01T14:17:28.501Z,13.03
2019-04-01T14:19:02.743Z,16.12
2019-04-01T14:20:36.970Z,15.68
2019-04-01T14:22:11.272Z,16.30
2019-04-01T14:23:46.129Z,15.58
2019-04-01T14:25:21.282Z,20.00
2019-04-01T14:26:56.987Z,13.70
2019-04-01T14:28:31.203Z,15.83
2019-04-01T14:30:07.638Z,14.93
2019-04-01T14:31:41.849Z,14.35
2019-04-01T14:33:16.205Z,15.75
2019-04-01T14:34:50.660Z,12.70
2019-04-01T14:36:25.395Z,15.63
2019-04-01T14:37:59.622Z,14.05
2019-04-01T14:39:34.929Z,13.03
2019-04-01T14:41:09.315Z,11.83
2019-04-01T14:42:46.353Z,16.20
2019-04-01T14:44:19.632Z,15.13
2019-04-01T14:45:53.945Z,13.45
2019-04-01T14:47:28.264Z,15.08
2019-04-01T14:49:04.122Z,16.30
2019-04-01T14:50:38.353Z,11.78
2019-04-01T14:52:12.617Z,13.50
2019-04-01T14:53:46.910Z,13.25
2019-04-01T14:55:21.438Z,12.25
2019-04-01T14:56:56.268Z,14.00
2019-04-01T14:58:31.267Z,12.58
2019-04-01T15:00:08.442Z,15.80
2019-04-01T15:01:42.788Z,13.95
2019-04-01T15:03:17.040Z,13.60
2019-04-01T15:04:53.423Z,13.18
2019-04-01T15:06:27.657Z,12.82
2019-04-01T15:08:02.051Z,12.30
2019-04-01T15:09:36.324Z,13.65
2019-04-01T15:11:12.171Z,13.00
2019-04-01T15:12:46.603Z,16.87
2019-04-01T15:14:20.951Z,11.93
2019-04-01T15:15:55.222Z,12.43
2019-04-01T15:17:29.492Z,13.28
2019-04-01T15:19:03.706Z,12.80
2019-04-01T15:20:38.397Z,15.43
2019-04-01T15:22:12.678Z,16.87
2019-04-01T15:23:47.018Z,16.12
2019-04-01T15:25:21.265Z,12.70
2019-04-01T15:26:55.847Z,14.83
2019-04-01T15:28:30.598Z,12.58
2019-04-01T15:30:08.433Z,10.50
2019-04-01T15:31:42.669Z,18.73
2019-04-01T15:33:32.005Z,16.17
2019-04-01T15:35:07.861Z,15.05
2019-04-01T15:36:42.088Z,17.82
2019-04-01T15:38:16.370Z,11.45
2019-04-01T15:39:51.012Z,11.08
2019-04-01T15:41:26.840Z,12.05
2019-04-01T15:43:01.203Z,15.80
2019-04-01T15:44:35.508Z,18.65
2019-04-01T15:46:13.854Z,13.00
2019-04-01T15:47:48.212Z,13.48
2019-04-01T15:49:22.511Z,13.90
2019-04-01T15:50:56.724Z,11.57
2019-04-01T15:52:30.936Z,11.57
2019-04-01T15:54:05.461Z,13.98
2019-04-01T15:55:39.679Z,12.90
2019-04-01T15:57:15.381Z,14.25
2019-04-01T15:58:50.998Z,19.12
2019-04-01T16:00:25.962Z,14.13
2019-04-01T16:02:00.199Z,15.98
2019-04-01T16:03:34.443Z,16.27
2019-04-01T16:05:08.897Z,16.00
2019-04-01T16:06:43.202Z,15.75
2019-04-01T16:08:17.470Z,10.63
2019-04-01T16:09:51.978Z,12.98
2019-04-01T16:11:26.676Z,16.80
2019-04-01T16:13:01.277Z,12.93
2019-04-01T16:14:35.538Z,17.90
2019-04-01T16:16:09.954Z,24.98
2019-04-01T16:17:44.290Z,23.12
2019-04-01T16:19:18.649Z,20.15
2019-04-01T16:20:55.035Z,30.90
2019-04-01T16:22:29.501Z,30.10
2019-04-01T16:24:03.968Z,39.83
2019-04-01T16:25:38.631Z,53.05
2019-04-01T16:27:12.879Z,48.33
2019-04-01T16:28:47.169Z,62.27
2019-04-01T16:30:21.518Z,39.75
2019-04-01T16:31:57.730Z,50.58
2019-04-01T16:33:32.481Z,49.38
2019-04-01T16:35:08.002Z,33.35
2019-04-01T16:36:42.238Z,40.33
2019-04-01T16:38:16.699Z,36.35
2019-04-01T16:39:50.977Z,42.08
2019-04-01T16:41:25.208Z,49.80
2019-04-01T16:42:59.511Z,61.73
2019-04-01T16:44:34.043Z,58.75
2019-04-01T16:46:08.341Z,84.45
2019-04-01T16:47:42.564Z,101.00
2019-04-01T16:49:16.804Z,58.60
2019-04-01T16:50:51.479Z,70.75
2019-04-01T16:52:25.803Z,70.90
2019-04-01T16:54:00.035Z,76.85
2019-04-01T16:55:36.144Z,65.12
2019-04-01T16:57:10.682Z,60.85
2019-04-01T16:58:44.917Z,56.40
2019-04-01T17:00:20.025Z,49.63
2019-04-01T17:01:57.536Z,69.42
2019-04-01T17:03:30.490Z,44.77
2019-04-01T17:05:06.086Z,48.63
2019-04-01T17:06:40.366Z,46.85
2019-04-01T17:08:15.291Z,52.93
2019-04-01T17:09:49.786Z,64.07
2019-04-01T17:11:23.988Z,57.73
2019-04-01T17:13:01.268Z,55.40
2019-04-01T17:14:35.489Z,56.65
2019-04-01T17:16:09.874Z,52.62
2019-04-01T17:17:44.317Z,44.20
2019-04-01T17:19:18.520Z,41.30
2019-04-01T17:20:52.743Z,53.42
2019-04-01T17:22:27.343Z,58.90
2019-04-01T17:24:01.646Z,59.05
2019-04-01T17:25:35.900Z,332.80
2019-04-01T17:27:13.217Z,216.93
2019-04-01T17:28:47.738Z,164.03
2019-04-01T17:30:21.987Z,146.70
2019-04-01T17:31:56.198Z,156.28
2019-04-01T17:33:30.414Z,107.63
2019-04-01T17:35:05.765Z,112.40
2019-04-01T17:36:40.115Z,78.67
2019-04-01T17:38:14.378Z,59.63
2019-04-01T17:39:48.710Z,67.60
2019-04-01T17:41:23.066Z,86.17
2019-04-01T17:42:57.305Z,141.20
2019-04-01T17:44:31.629Z,98.50
2019-04-01T17:46:06.106Z,115.17
2019-04-01T17:47:40.624Z,110.32
2019-04-01T17:49:14.860Z,122.05
2019-04-01T17:50:49.152Z,170.85
2019-04-01T17:52:24.414Z,201.40
2019-04-01T17:54:01.109Z,326.75
2019-04-01T17:55:35.675Z,275.57
2019-04-01T17:57:10.037Z,294.25
2019-04-01T17:58:44.688Z,193.20
2019-04-01T18:00:23.701Z,178.57
2019-04-01T18:01:57.956Z,169.75
2019-04-01T18:03:34.068Z,132.35
2019-04-01T18:05:11.059Z,116.97
2019-04-01T18:06:45.720Z,101.87
2019-04-01T18:08:19.949Z,100.53
2019-04-01T18:09:54.245Z,68.85
2019-04-01T18:11:28.505Z,66.85
2019-04-01T18:13:02.837Z,52.80
2019-04-01T18:14:37.138Z,49.65
2019-04-01T18:16:11.371Z,60.88
2019-04-01T18:17:45.743Z,57.73
2019-04-01T18:19:20.240Z,87.95
2019-04-01T18:20:54.496Z,101.87
2019-04-01T18:22:29.113Z,109.25
2019-04-01T18:24:03.769Z,75.37
2019-04-01T18:25:38.240Z,70.00
2019-04-01T18:27:12.506Z,55.23
2019-04-01T18:28:46.857Z,49.03
2019-04-01T18:30:21.445Z,49.10
2019-04-01T18:31:58.887Z,45.67
2019-04-01T18:33:33.125Z,46.42
2019-04-01T18:35:07.388Z,47.17
2019-04-01T18:36:41.689Z,46.35
2019-04-01T18:38:16.304Z,46.85
2019-04-01T18:39:51.421Z,30.85
2019-04-01T18:41:25.668Z,38.88
2019-04-01T18:43:00.161Z,47.88
2019-04-01T18:44:35.166Z,45.65
2019-04-01T18:46:09.461Z,44.08
2019-04-01T18:47:43.811Z,43.30
2019-04-01T18:49:18.034Z,33.30
2019-04-01T18:50:52.714Z,27.95
2019-04-01T18:52:26.996Z,26.23
2019-04-01T18:54:01.343Z,33.40
2019-04-01T18:55:35.724Z,28.95
2019-04-01T18:57:10.380Z,29.95
2019-04-01T18:58:44.589Z,29.65
2019-04-01T19:00:19.028Z,30.62
2019-04-01T19:01:53.335Z,25.70
2019-04-01T19:03:27.923Z,30.57
2019-04-01T19:05:02.135Z,35.92
2019-04-01T19:06:36.412Z,40.58
2019-04-01T19:08:10.692Z,39.08
2019-04-01T19:09:45.228Z,38.55
2019-04-01T19:11:19.386Z,31.93
2019-04-01T19:13:05.038Z,30.85
2019-04-01T19:14:29.629Z,27.25
2019-04-01T19:16:05.578Z,27.35
2019-04-01T19:17:40.202Z,30.45
2019-04-01T19:19:14.435Z,33.15
2019-04-01T19:20:56.222Z,27.58
2019-04-01T19:22:24.618Z,25.27
2019-04-01T19:23:59.961Z,32.10
2019-04-01T19:25:34.317Z,29.05
2019-04-01T19:27:08.614Z,30.70
2019-04-01T19:28:43.266Z,27.55
2019-04-01T19:30:17.959Z,41.30
2019-04-01T19:31:52.240Z,25.75
2019-04-01T19:33:26.481Z,37.33
2019-04-01T19:35:01.499Z,33.33
2019-04-01T19:36:35.709Z,35.38
2019-04-01T19:38:09.945Z,36.30
2019-04-01T19:39:44.183Z,23.80
2019-04-01T19:41:20.346Z,26.95
2019-04-01T19:42:54.890Z,80.07
2019-04-01T19:44:29.189Z,33.20
2019-04-01T19:46:03.467Z,41.05
2019-04-01T19:47:38.074Z,31.20
2019-04-01T19:49:12.402Z,32.98
2019-04-01T19:50:46.666Z,35.60
2019-04-01T19:52:22.426Z,25.70
2019-04-01T19:53:57.732Z,32.28
2019-04-01T19:55:32.017Z,31.82
2019-04-01T19:57:06.253Z,38.55
2019-04-01T19:58:40.535Z,41.75
2019-04-01T20:00:27.030Z,42.73
2019-04-01T20:01:51.489Z,37.65
2019-04-01T20:03:25.987Z,41.92
2019-04-01T20:05:00.401Z,50.23
2019-04-01T20:06:35.705Z,52.45
2019-04-01T20:08:23.612Z,55.55
2019-04-01T20:09:59.468Z,59.80
2019-04-01T20:11:40.439Z,61.75
2019-04-01T20:13:19.955Z,63.63
2019-04-01T20:15:12.538Z,57.20
2019-04-01T20:16:54.642Z,54.20
2019-04-01T20:18:28.937Z,47.55
2019-04-01T20:20:03.436Z,46.92